createdAt,value
2023-01-23T00:01:06.853Z,20.00
2023-01-23T00:03:38.191Z,19.90
2023-01-23T00:06:12.083Z,19.90
2023-01-23T00:08:44.205Z,19.90
2023-01-23T00:11:18.731Z,19.90
2023-01-23T00:13:49.537Z,19.80
2023-01-23T00:16:24.781Z,19.80
2023-01-23T00:18:57.160Z,19.80
2023-01-23T00:21:30.273Z,19.80
2023-01-23T00:24:02.864Z,19.80
2023-01-23T00:26:34.756Z,19.80
2023-01-23T00:29:06.557Z,19.80
2023-01-23T00:31:39.025Z,19.80
2023-01-23T00:34:12.380Z,19.80
2023-01-23T00:36:45.191Z,19.80
2023-01-23T00:39:19.151Z,19.90
2023-01-23T00:41:51.701Z,19.90
2023-01-23T00:44:22.518Z,20.00
2023-01-23T00:46:53.437Z,20.00
2023-01-23T00:49:24.767Z,20.10
2023-01-23T00:51:57.785Z,20.20
2023-01-23T00:54:28.757Z,20.20
2023-01-23T00:56:59.757Z,20.30
2023-01-23T00:59:30.586Z,20.40
2023-01-23T01:02:01.341Z,20.40
2023-01-23T01:04:32.202Z,20.50
2023-01-23T01:07:06.535Z,20.60
2023-01-23T01:09:38.095Z,20.70
2023-01-23T01:12:11.095Z,20.70
2023-01-23T01:14:41.921Z,20.70
2023-01-23T01:17:12.782Z,20.70
2023-01-23T01:19:44.041Z,20.70
2023-01-23T01:22:14.837Z,20.70
2023-01-23T01:24:45.738Z,20.70
2023-01-23T01:27:16.607Z,20.70
2023-01-23T01:29:47.529Z,20.70
2023-01-23T01:32:18.300Z,20.70
2023-01-23T01:34:50.737Z,20.80
2023-01-23T01:37:22.907Z,20.80
2023-01-23T01:39:54.914Z,20.90
2023-01-23T01:42:27.553Z,20.90
2023-01-23T01:45:01.383Z,21.00
2023-01-23T01:47:34.147Z,21.10
2023-01-23T01:50:07.084Z,21.20
2023-01-23T01:52:38.014Z,21.30
2023-01-23T01:55:18.697Z,21.40
2023-01-23T01:57:54.579Z,21.50
2023-01-23T02:00:29.172Z,21.60
2023-01-23T02:03:02.449Z,21.70
2023-01-23T02:05:35.679Z,21.80
2023-01-23T02:08:36.094Z,21.90
2023-01-23T02:11:07.400Z,22.10
2023-01-23T02:13:40.958Z,22.20
2023-01-23T02:16:14.280Z,22.30
2023-01-23T02:18:49.891Z,22.40
2023-01-23T02:21:25.992Z,22.50
2023-01-23T02:24:09.284Z,22.60
2023-01-23T02:26:45.538Z,22.70
2023-01-23T02:29:19.087Z,22.80
2023-01-23T02:31:51.680Z,22.90
2023-01-23T02:34:23.974Z,23.00
2023-01-23T02:36:54.894Z,23.10
2023-01-23T02:39:26.084Z,23.20
2023-01-23T02:41:58.063Z,23.30
2023-01-23T02:44:35.184Z,23.30
2023-01-23T02:47:09.983Z,23.40
2023-01-23T02:49:41.606Z,23.50
2023-01-23T02:52:12.523Z,23.60
2023-01-23T02:54:43.280Z,23.60
2023-01-23T02:57:14.148Z,23.70
2023-01-23T03:00:02.060Z,23.80
2023-01-23T03:02:33.051Z,23.80
2023-01-23T03:05:03.798Z,23.80
2023-01-23T03:07:34.506Z,23.90
2023-01-23T03:10:06.648Z,24.00
2023-01-23T03:12:38.920Z,24.00
2023-01-23T03:15:10.885Z,24.10
2023-01-23T03:17:41.552Z,24.20
2023-01-23T03:20:13.154Z,24.30
2023-01-23T03:22:44.357Z,24.30
2023-01-23T03:25:15.085Z,24.40
2023-01-23T03:27:45.966Z,24.50
2023-01-23T03:30:22.137Z,24.60
2023-01-23T03:32:53.583Z,24.80
2023-01-23T03:35:28.043Z,24.90
2023-01-23T03:37:58.929Z,25.00
2023-01-23T03:40:49.005Z,25.10
2023-01-23T03:43:19.745Z,25.20
2023-01-23T03:45:50.858Z,25.30
2023-01-23T03:48:21.620Z,25.30
2023-01-23T03:50:52.590Z,25.30
2023-01-23T03:53:24.486Z,25.40
2023-01-23T03:55:56.073Z,25.50
2023-01-23T03:58:27.537Z,25.60
2023-01-23T04:00:59.072Z,25.80
2023-01-23T04:03:29.844Z,25.90
2023-01-23T04:06:02.365Z,26.10
2023-01-23T04:08:33.079Z,26.20
2023-01-23T04:11:12.047Z,26.30
2023-01-23T04:13:43.040Z,26.50
2023-01-23T04:16:13.943Z,26.60
2023-01-23T04:18:45.191Z,26.70
2023-01-23T04:21:16.042Z,26.80
2023-01-23T04:23:46.825Z,26.90
2023-01-23T04:26:17.734Z,27.00
2023-01-23T04:28:48.414Z,27.10
2023-01-23T04:31:19.204Z,27.20
2023-01-23T04:33:51.141Z,27.40
2023-01-23T04:36:21.985Z,27.50
2023-01-23T04:38:52.974Z,27.60
2023-01-23T04:41:29.364Z,27.70
2023-01-23T04:44:01.919Z,27.80
2023-01-23T04:49:24.790Z,28.00
2023-01-23T04:51:56.411Z,28.10
2023-01-23T04:54:27.771Z,28.30
2023-01-23T04:56:58.832Z,28.30
2023-01-23T04:59:29.650Z,28.40
2023-01-23T05:02:00.317Z,28.50
2023-01-23T05:04:31.620Z,28.50
2023-01-23T05:07:04.005Z,28.60
2023-01-23T05:09:34.618Z,28.60
2023-01-23T05:12:05.690Z,28.80
2023-01-23T05:14:36.737Z,28.90
2023-01-23T05:17:10.625Z,29.00
2023-01-23T05:19:41.539Z,29.10
2023-01-23T05:22:14.119Z,29.10
2023-01-23T05:24:44.927Z,29.10
2023-01-23T05:27:16.134Z,29.20
2023-01-23T05:29:48.052Z,29.30
2023-01-23T05:32:18.879Z,29.30
2023-01-23T05:34:52.738Z,29.40
2023-01-23T05:37:24.808Z,29.50
2023-01-23T05:40:02.723Z,29.50
2023-01-23T05:42:38.073Z,29.60
2023-01-23T05:45:09.795Z,29.60
2023-01-23T05:47:46.176Z,29.70
2023-01-23T05:50:36.764Z,29.70
2023-01-23T05:53:08.464Z,29.70
2023-01-23T05:55:46.542Z,29.80
2023-01-23T05:58:18.831Z,29.90
2023-01-23T06:00:49.647Z,29.90
2023-01-23T06:03:26.589Z,29.90
2023-01-23T06:06:00.565Z,30.00
2023-01-23T06:08:34.742Z,30.00
2023-01-23T06:11:07.586Z,30.10
2023-01-23T06:13:47.571Z,30.10
2023-01-23T06:19:18.325Z,30.20
2023-01-23T06:21:52.589Z,30.50
2023-01-23T06:24:25.654Z,30.30
2023-01-23T06:27:01.469Z,30.30
2023-01-23T06:29:37.833Z,30.30
2023-01-23T06:32:09.730Z,30.40
2023-01-23T06:34:40.844Z,30.50
2023-01-23T06:37:13.341Z,30.50
2023-01-23T06:39:47.177Z,30.50
2023-01-23T06:42:17.857Z,30.50
2023-01-23T06:44:49.229Z,30.50
2023-01-23T06:47:22.505Z,30.50
2023-01-23T06:55:27.277Z,30.60
2023-01-23T06:57:59.521Z,30.60
2023-01-23T07:00:31.758Z,30.60
2023-01-23T07:03:04.173Z,30.60
2023-01-23T07:05:45.717Z,30.60
2023-01-23T07:08:18.069Z,30.50
2023-01-23T07:11:00.505Z,30.50
2023-01-23T07:13:36.967Z,30.50
2023-01-23T07:16:14.317Z,30.50
2023-01-23T07:18:51.217Z,30.50
2023-01-23T07:21:22.110Z,30.50
2023-01-23T07:23:57.978Z,30.50
2023-01-23T07:26:29.127Z,30.50
2023-01-23T07:29:07.174Z,30.50
2023-01-23T07:31:44.977Z,30.50
2023-01-23T07:34:16.951Z,30.50
2023-01-23T07:36:50.752Z,30.50
2023-01-23T07:39:27.471Z,30.50
2023-01-23T07:42:06.489Z,30.50
2023-01-23T07:44:39.003Z,30.50
2023-01-23T07:47:10.244Z,30.50
2023-01-23T07:49:42.617Z,30.50
2023-01-23T07:52:15.293Z,30.40
2023-01-23T07:54:48.796Z,30.40
2023-01-23T07:57:19.632Z,30.40
2023-01-23T07:59:54.776Z,30.40
2023-01-23T08:02:40.775Z,30.40
2023-01-23T08:05:13.062Z,30.40
2023-01-23T08:07:46.235Z,30.30
2023-01-23T08:13:13.729Z,30.20
2023-01-23T08:15:53.973Z,30.20
2023-01-23T08:18:27.299Z,30.20
2023-01-23T08:21:01.147Z,30.20
2023-01-23T08:23:46.569Z,30.20
2023-01-23T08:29:15.935Z,30.10
2023-01-23T08:31:46.745Z,30.10
2023-01-23T08:34:17.629Z,30.10
2023-01-23T08:36:48.355Z,30.10
2023-01-23T08:39:21.263Z,30.20
2023-01-23T08:41:52.060Z,30.30
2023-01-23T08:44:22.854Z,30.30
2023-01-23T08:46:53.680Z,30.20
2023-01-23T08:49:24.495Z,30.20
2023-01-23T08:51:55.599Z,30.10
2023-01-23T08:54:26.398Z,30.10
2023-01-23T08:56:57.119Z,30.00
2023-01-23T08:59:28.254Z,30.10
2023-01-23T09:02:02.046Z,30.10
2023-01-23T09:04:35.970Z,30.10
2023-01-23T09:07:06.761Z,30.10
2023-01-23T09:09:37.710Z,30.00
2023-01-23T09:12:12.142Z,30.00
2023-01-23T09:14:43.282Z,29.90
2023-01-23T09:17:15.085Z,30.00
2023-01-23T09:19:47.643Z,29.90
2023-01-23T09:25:18.249Z,29.90
2023-01-23T09:27:49.039Z,29.90
2023-01-23T09:30:22.137Z,29.90
2023-01-23T09:32:53.067Z,29.90
2023-01-23T09:35:24.586Z,29.90
2023-01-23T09:40:56.363Z,29.80
2023-01-23T09:43:29.738Z,29.80
2023-01-23T09:46:13.430Z,29.80
2023-01-23T09:48:53.479Z,29.70
2023-01-23T09:51:43.603Z,29.70
2023-01-23T09:54:35.147Z,29.70
2023-01-23T09:57:08.464Z,29.70
2023-01-23T09:59:58.348Z,29.70
2023-01-23T10:02:26.758Z,29.70
2023-01-23T10:04:58.303Z,29.70
2023-01-23T10:07:49.682Z,29.60
2023-01-23T10:10:40.657Z,29.60
2023-01-23T10:13:19.701Z,29.40
2023-01-23T10:16:21.532Z,29.40
2023-01-23T10:19:12.836Z,29.40
2023-01-23T10:22:19.714Z,29.30
2023-01-23T10:24:55.268Z,29.30
2023-01-23T10:27:32.347Z,29.30
2023-01-23T10:30:22.091Z,29.20
2023-01-23T10:32:55.467Z,29.20
2023-01-23T10:35:31.784Z,29.20
2023-01-23T10:38:10.344Z,29.20
2023-01-23T10:40:58.784Z,29.10
2023-01-23T10:43:29.901Z,29.00
2023-01-23T10:46:00.649Z,28.90
2023-01-23T10:48:40.539Z,28.90
2023-01-23T10:51:41.746Z,28.80
2023-01-23T10:54:36.608Z,28.70
2023-01-23T10:57:05.893Z,28.70
2023-01-23T10:59:45.154Z,28.60
2023-01-23T11:02:21.840Z,28.50
2023-01-23T11:04:53.865Z,28.50
2023-01-23T11:07:29.711Z,28.40
2023-01-23T11:10:03.195Z,28.40
2023-01-23T11:12:39.411Z,28.30
2023-01-23T11:15:32.502Z,28.30
2023-01-23T11:18:04.280Z,28.20
2023-01-23T11:20:40.112Z,28.20
2023-01-23T11:23:19.003Z,28.10
2023-01-23T11:25:54.348Z,28.10
2023-01-23T11:28:29.227Z,28.00
2023-01-23T11:31:20.945Z,28.00
2023-01-23T11:34:04.285Z,28.00
2023-01-23T11:36:52.680Z,28.00
2023-01-23T11:39:54.970Z,28.00
2023-01-23T11:42:28.690Z,27.90
2023-01-23T11:45:03.508Z,27.80
2023-01-23T11:47:45.759Z,27.80
2023-01-23T11:50:54.124Z,27.80
2023-01-23T11:53:14.030Z,27.80
2023-01-23T11:56:07.206Z,27.70
2023-01-23T11:58:52.654Z,27.70
2023-01-23T12:01:31.975Z,27.60
2023-01-23T12:04:11.029Z,27.60
2023-01-23T12:06:57.658Z,27.60
2023-01-23T12:09:31.110Z,27.60
2023-01-23T12:12:19.556Z,27.60
2023-01-23T12:14:55.608Z,27.50
2023-01-23T12:17:41.821Z,27.50
2023-01-23T12:20:36.204Z,27.40
2023-01-23T12:23:31.931Z,27.40
2023-01-23T12:26:17.751Z,27.40
2023-01-23T12:29:14.695Z,27.40
2023-01-23T12:32:21.356Z,27.40
2023-01-23T12:35:20.446Z,27.30
2023-01-23T12:37:59.576Z,27.30
2023-01-23T12:40:32.929Z,27.20
2023-01-23T12:43:06.462Z,27.30
2023-01-23T12:45:38.481Z,27.20
2023-01-23T12:48:17.576Z,27.20
2023-01-23T12:50:50.966Z,27.20
2023-01-23T12:53:27.449Z,27.20
2023-01-23T12:56:03.834Z,27.10
2023-01-23T12:58:37.291Z,27.10
2023-01-23T13:01:25.809Z,27.10
2023-01-23T13:04:11.194Z,27.10
2023-01-23T13:06:50.316Z,27.10
2023-01-23T13:09:30.135Z,27.10
2023-01-23T13:12:27.412Z,27.00
2023-01-23T13:15:18.966Z,27.00
2023-01-23T13:17:54.433Z,27.00
2023-01-23T13:20:48.319Z,27.00
2023-01-23T13:23:36.586Z,27.00
2023-01-23T13:28:56.852Z,26.90
2023-01-23T13:31:48.418Z,26.90
2023-01-23T13:34:22.196Z,26.80
2023-01-23T13:36:54.374Z,26.70
2023-01-23T13:39:27.486Z,26.70
2023-01-23T13:42:19.730Z,26.70
2023-01-23T13:45:29.679Z,26.70
2023-01-23T13:48:35.624Z,26.60
2023-01-23T13:51:14.809Z,26.60
2023-01-23T13:54:10.355Z,26.50
2023-01-23T13:56:43.398Z,26.50
2023-01-23T13:59:24.094Z,26.40
2023-01-23T14:02:20.628Z,26.40
2023-01-23T14:05:14.619Z,26.30
2023-01-23T14:07:54.873Z,26.30
2023-01-23T14:10:36.677Z,26.30
2023-01-23T14:13:15.881Z,26.30
2023-01-23T14:16:09.883Z,26.20
2023-01-23T14:18:49.218Z,26.30
2023-01-23T14:21:41.450Z,26.20
2023-01-23T14:24:14.641Z,26.20
2023-01-23T14:26:47.608Z,26.10
2023-01-23T14:29:27.111Z,26.00
2023-01-23T14:32:00.200Z,26.00
2023-01-23T14:34:30.743Z,25.90
2023-01-23T14:37:09.912Z,25.90
2023-01-23T14:39:48.102Z,25.90
2023-01-23T14:42:27.489Z,25.90
2023-01-23T14:44:59.919Z,25.80
2023-01-23T14:47:37.797Z,25.80
2023-01-23T14:50:13.570Z,25.80
2023-01-23T14:52:44.637Z,25.70
2023-01-23T14:55:29.803Z,25.60
2023-01-23T14:58:01.433Z,25.60
2023-01-23T15:00:33.773Z,25.60
2023-01-23T15:03:06.291Z,25.50
2023-01-23T15:05:38.532Z,25.50
2023-01-23T15:08:22.459Z,25.40
2023-01-23T15:10:54.932Z,25.40
2023-01-23T15:13:33.979Z,25.30
2023-01-23T15:16:06.916Z,25.30
2023-01-23T15:18:38.879Z,25.30
2023-01-23T15:21:10.945Z,25.20
2023-01-23T15:23:44.178Z,25.20
2023-01-23T15:26:24.827Z,25.20
2023-01-23T15:29:02.208Z,25.10
2023-01-23T15:31:35.862Z,25.10
2023-01-23T15:34:18.568Z,25.10
2023-01-23T15:37:00.678Z,25.10
2023-01-23T15:39:34.366Z,25.10
2023-01-23T15:42:11.201Z,25.00
2023-01-23T15:44:40.856Z,25.00
2023-01-23T15:47:12.483Z,25.00
2023-01-23T15:49:44.357Z,24.90
2023-01-23T15:52:26.566Z,24.90
2023-01-23T15:54:59.761Z,24.90
2023-01-23T15:57:30.756Z,24.90
2023-01-23T16:00:02.571Z,24.80
2023-01-23T16:02:37.443Z,24.90
2023-01-23T16:05:08.957Z,24.90
2023-01-23T16:07:48.353Z,24.80
2023-01-23T16:10:29.098Z,24.80
2023-01-23T16:13:00.948Z,24.80
2023-01-23T16:15:39.496Z,24.80
2023-01-23T16:18:10.136Z,24.80
2023-01-23T16:20:46.462Z,24.80
2023-01-23T16:23:24.785Z,24.80
2023-01-23T16:25:56.294Z,24.80
2023-01-23T16:28:27.949Z,24.80
2023-01-23T16:30:58.828Z,24.70
2023-01-23T16:33:29.736Z,24.70
2023-01-23T16:36:00.686Z,24.70
2023-01-23T16:38:32.469Z,24.70
2023-01-23T16:41:04.397Z,24.60
2023-01-23T16:43:36.594Z,24.60
2023-01-23T16:46:07.577Z,24.60
2023-01-23T16:48:38.453Z,24.60
2023-01-23T16:51:25.971Z,24.60
2023-01-23T16:54:02.262Z,24.60
2023-01-23T16:56:42.873Z,24.50
2023-01-23T16:59:16.475Z,24.50
2023-01-23T17:01:49.798Z,24.50
2023-01-23T17:04:22.914Z,24.50
2023-01-23T17:06:53.946Z,24.50
2023-01-23T17:09:24.645Z,24.50
2023-01-23T17:11:57.883Z,24.40
2023-01-23T17:14:36.410Z,24.40
2023-01-23T17:17:09.741Z,24.40
2023-01-23T17:19:42.660Z,24.40
2023-01-23T17:22:19.172Z,24.40
2023-01-23T17:24:50.033Z,24.40
2023-01-23T17:27:20.846Z,24.40
2023-01-23T17:29:51.711Z,24.40
2023-01-23T17:32:31.030Z,24.40
2023-01-23T17:35:03.786Z,24.40
2023-01-23T17:37:36.123Z,24.30
2023-01-23T17:40:08.083Z,24.30
2023-01-23T17:42:38.864Z,24.30
2023-01-23T17:45:12.093Z,24.20
2023-01-23T17:47:45.340Z,24.30
2023-01-23T17:50:24.992Z,24.20
2023-01-23T17:52:57.150Z,24.20
2023-01-23T17:55:33.921Z,24.20
2023-01-23T17:58:04.905Z,24.20
2023-01-23T18:00:35.980Z,24.20
2023-01-23T18:03:07.473Z,24.10
2023-01-23T18:05:38.216Z,24.10
2023-01-23T18:08:09.969Z,24.10
2023-01-23T18:10:41.297Z,24.10
2023-01-23T18:13:23.908Z,24.10
2023-01-23T18:16:15.322Z,24.00
2023-01-23T18:18:47.712Z,24.00
2023-01-23T18:21:19.161Z,24.00
2023-01-23T18:23:51.051Z,23.90
2023-01-23T18:26:33.126Z,23.90
2023-01-23T18:29:23.000Z,23.90
2023-01-23T18:32:15.525Z,23.80
2023-01-23T18:35:08.114Z,23.80
2023-01-23T18:37:53.197Z,23.80
2023-01-23T18:40:38.217Z,23.80
2023-01-23T18:43:14.128Z,23.70
2023-01-23T18:45:45.592Z,23.80
2023-01-23T18:48:25.542Z,23.70
2023-01-23T18:51:14.507Z,23.70
2023-01-23T18:53:53.565Z,23.70
2023-01-23T18:56:54.285Z,23.70
2023-01-23T18:59:36.345Z,23.70
2023-01-23T19:02:19.175Z,23.60
2023-01-23T19:05:07.704Z,23.60
2023-01-23T19:07:39.435Z,23.60
2023-01-23T19:10:18.773Z,23.50
2023-01-23T19:13:18.996Z,23.40
2023-01-23T19:16:04.123Z,23.40
2023-01-23T19:18:54.378Z,23.30
2023-01-23T19:21:31.001Z,23.20
2023-01-23T19:24:07.837Z,23.10
2023-01-23T19:26:38.990Z,23.10
2023-01-23T19:29:21.446Z,23.00
2023-01-23T19:31:49.746Z,23.00
2023-01-23T19:34:16.689Z,22.90
2023-01-23T19:36:47.529Z,22.90
2023-01-23T19:39:18.547Z,22.90
2023-01-23T19:41:51.048Z,22.80
2023-01-23T19:44:24.980Z,22.80
2023-01-23T19:46:55.850Z,22.70
2023-01-23T19:49:26.876Z,22.70
2023-01-23T19:51:57.734Z,22.60
2023-01-23T19:54:28.439Z,22.60
2023-01-23T19:56:59.242Z,22.60
2023-01-23T19:59:30.597Z,22.60
2023-01-23T20:02:01.586Z,22.50
2023-01-23T20:04:32.497Z,22.50
2023-01-23T20:07:03.346Z,22.50
2023-01-23T20:09:34.244Z,22.60
2023-01-23T20:12:05.024Z,22.50
2023-01-23T20:14:35.925Z,22.60
2023-01-23T20:17:06.726Z,22.60
2023-01-23T20:19:37.692Z,22.60
2023-01-23T20:22:08.736Z,22.60
2023-01-23T20:24:39.440Z,22.60
2023-01-23T20:27:10.440Z,22.60
2023-01-23T20:29:41.356Z,22.60
2023-01-23T20:32:12.179Z,22.60
2023-01-23T20:34:42.999Z,22.60
2023-01-23T20:37:13.798Z,22.60
2023-01-23T20:39:44.602Z,22.60
2023-01-23T20:42:15.538Z,22.60
2023-01-23T20:44:46.429Z,22.50
2023-01-23T20:47:26.243Z,22.50
2023-01-23T20:49:57.014Z,22.50
2023-01-23T20:52:45.767Z,22.50
2023-01-23T20:55:16.827Z,22.50
2023-01-23T20:58:05.407Z,22.50
2023-01-23T21:00:36.265Z,22.50
2023-01-23T21:03:07.272Z,22.40
2023-01-23T21:05:38.824Z,22.40
2023-01-23T21:08:10.179Z,22.40
2023-01-23T21:10:40.923Z,22.30
2023-01-23T21:13:13.984Z,22.30
2023-01-23T21:15:45.269Z,22.30
2023-01-23T21:18:16.186Z,22.30
2023-01-23T21:20:47.038Z,22.20
2023-01-23T21:23:17.712Z,22.20
2023-01-23T21:25:48.509Z,22.20
2023-01-23T21:28:19.324Z,22.20
2023-01-23T21:30:50.342Z,22.20
2023-01-23T21:33:21.512Z,22.20
2023-01-23T21:35:56.910Z,22.10
2023-01-23T21:38:27.905Z,22.10
2023-01-23T21:40:58.664Z,22.10
2023-01-23T21:43:29.544Z,22.10
2023-01-23T21:48:34.632Z,22.00
2023-01-23T21:51:13.879Z,22.00
2023-01-23T21:53:46.482Z,22.00
2023-01-23T21:56:18.771Z,22.00
2023-01-23T21:58:50.306Z,21.90
2023-01-23T22:01:41.872Z,21.90
2023-01-23T22:04:15.112Z,21.90
2023-01-23T22:06:46.827Z,21.90
2023-01-23T22:09:20.209Z,21.90
2023-01-23T22:11:51.713Z,21.90
2023-01-23T22:14:22.824Z,21.80
2023-01-23T22:16:53.671Z,21.80
2023-01-23T22:19:25.955Z,21.80
2023-01-23T22:21:58.301Z,21.80
2023-01-23T22:24:29.204Z,21.80
2023-01-23T22:27:00.727Z,21.70
2023-01-23T22:29:31.639Z,21.70
2023-01-23T22:32:02.712Z,21.70
2023-01-23T22:34:33.867Z,21.70
2023-01-23T22:37:04.777Z,21.70
2023-01-23T22:39:35.687Z,21.70
2023-01-23T22:42:06.838Z,21.60
2023-01-23T22:44:37.705Z,21.60
2023-01-23T22:47:10.114Z,21.60
2023-01-23T22:49:41.099Z,21.60
2023-01-23T22:52:12.030Z,21.60
2023-01-23T22:54:43.271Z,21.60
2023-01-23T22:57:14.116Z,21.50
2023-01-23T22:59:44.793Z,21.50
2023-01-23T23:02:16.699Z,21.50
2023-01-23T23:04:48.812Z,21.50
2023-01-23T23:07:20.119Z,21.50
2023-01-23T23:09:50.768Z,21.50
2023-01-23T23:12:21.710Z,21.50
2023-01-23T23:14:52.668Z,21.50
2023-01-23T23:17:23.730Z,21.50
2023-01-23T23:19:54.603Z,21.50
2023-01-23T23:22:25.502Z,21.50
2023-01-23T23:24:56.304Z,21.50
2023-01-23T23:27:27.364Z,21.50
2023-01-23T23:29:58.152Z,21.50
2023-01-23T23:32:28.970Z,21.50
2023-01-23T23:35:00.420Z,21.60
2023-01-23T23:37:31.424Z,21.50
2023-01-23T23:40:02.275Z,21.50
2023-01-23T23:42:32.967Z,21.50
2023-01-23T23:45:03.715Z,21.50
2023-01-23T23:47:34.633Z,21.50
2023-01-23T23:50:06.009Z,21.50
2023-01-23T23:52:36.924Z,21.50
2023-01-23T23:55:08.582Z,21.50
2023-01-23T23:57:39.505Z,21.50
